Time;durP1;ratioP1;P1;durP2;ratioP2;P2;SDS_P1;SDS_P2;PMS_P1;PMS_P2;Temp;Humidity;BMP_temperature;BMP_pressure;BME280_temperature;BME280_humidity;BME280_pressure;Samples;Min_cycle;Max_cycle;Signal;HPM_P1;HPM_P2
2022/04/25 00:00:29;;;;;;;9.13;5.67;;;;;;;19.38;52.33;93962.03;5073311;28;20201;-74
2022/04/25 00:02:58;;;;;;;13.27;4.87;;;;;;;19.37;52.57;93967.44;5073250;28;20208;-73
2022/04/25 00:05:25;;;;;;;14.17;4.57;;;;;;;19.32;52.55;93968.06;5073602;28;20194;-76
2022/04/25 00:07:51;;;;;;;16.57;4.83;;;;;;;19.30;52.77;93970.88;5072479;28;20190;-76
2022/04/25 00:10:18;;;;;;;9.60;4.20;;;;;;;19.26;52.67;93974.91;5072911;28;20231;-74
2022/04/25 00:12:45;;;;;;;12.00;4.83;;;;;;;19.25;52.78;93975.88;5072559;28;20194;-76
2022/04/25 00:15:12;;;;;;;13.30;5.03;;;;;;;19.21;52.83;93974.72;5073123;28;20218;-74
2022/04/25 00:17:40;;;;;;;8.90;4.67;;;;;;;19.21;52.72;93979.09;5072552;28;20597;-74
2022/04/25 00:20:09;;;;;;;11.80;4.53;;;;;;;19.18;52.74;93982.91;5072941;28;20195;-76
2022/04/25 00:22:36;;;;;;;10.50;5.23;;;;;;;19.13;52.90;93971.56;5072504;28;20278;-75
2022/04/25 00:25:03;;;;;;;7.57;4.20;;;;;;;19.11;52.89;93982.16;5072736;28;20209;-75
2022/04/25 00:27:30;;;;;;;11.73;4.40;;;;;;;19.11;53.12;93983.94;5072642;28;20240;-74
2022/04/25 00:29:57;;;;;;;14.50;5.20;;;;;;;19.08;53.00;93981.75;5071476;28;20186;-73
2022/04/25 00:32:24;;;;;;;13.50;4.60;;;;;;;19.03;53.00;93974.59;5072620;28;20194;-74
2022/04/25 00:34:52;;;;;;;8.10;4.27;;;;;;;19.03;52.91;93982.38;5072441;28;20272;-73
2022/04/25 00:37:19;;;;;;;10.53;4.80;;;;;;;19.01;52.90;93974.03;5073116;28;20198;-73
2022/04/25 00:39:46;;;;;;;11.37;4.90;;;;;;;18.98;53.22;93979.63;5072218;28;20195;-73
2022/04/25 00:42:12;;;;;;;12.70;5.10;;;;;;;18.96;53.16;93971.28;5072646;28;20677;-74
2022/04/25 00:44:41;;;;;;;12.67;4.33;;;;;;;18.95;53.45;93972.25;5072350;28;20206;-74
2022/04/25 00:47:10;;;;;;;9.23;4.77;;;;;;;18.91;53.05;93964.13;5072482;28;20191;-74
2022/04/25 00:49:37;;;;;;;7.57;4.00;;;;;;;18.90;53.19;93965.09;5072017;28;20190;-75
2022/04/25 00:52:06;;;;;;;14.77;4.50;;;;;;;18.88;53.20;93963.75;5072470;28;20214;-74
2022/04/25 00:54:33;;;;;;;12.47;5.37;;;;;;;18.83;53.26;93959.19;5071960;28;20233;-75
2022/04/25 00:57:01;;;;;;;9.13;4.23;;;;;;;18.85;53.17;93956.38;5072069;28;20197;-73
2022/04/25 00:59:29;;;;;;;14.67;5.50;;;;;;;18.82;53.14;93957.56;5072270;28;20213;-74
2022/04/25 01:01:56;;;;;;;8.27;4.67;;;;;;;18.82;53.21;93949.78;5072058;28;20193;-75
2022/04/25 01:04:22;;;;;;;10.30;4.30;;;;;;;18.78;53.40;93948.59;5072026;28;20186;-76
2022/04/25 01:06:49;;;;;;;13.43;4.67;;;;;;;18.77;53.27;93941.84;5072062;28;20554;-74
2022/04/25 01:09:18;;;;;;;9.13;4.53;;;;;;;18.75;53.31;93944.66;5071560;28;20230;-74
2022/04/25 01:11:45;;;;;;;8.93;4.03;;;;;;;18.75;53.42;93936.09;5071975;28;20199;-74
2022/04/25 01:14:13;;;;;;;14.50;4.43;;;;;;;18.72;53.60;93928.72;5071713;28;20269;-74
2022/04/25 01:16:40;;;;;;;12.10;5.30;;;;;;;18.65;53.60;93923.56;5071840;28;20607;-74
2022/04/25 01:19:06;;;;;;;11.80;4.40;;;;;;;18.69;53.67;93924.75;5071443;28;20186;-73
2022/04/25 01:21:39;;;;;;;11.10;4.40;;;;;;;18.69;53.63;93918.75;5071710;28;20194;-74
2022/04/25 01:29:38;;;;;;;11.13;4.60;;;;;;;18.64;53.79;93921.16;5071228;28;20197;-73
2022/04/25 01:32:06;;;;;;;16.07;5.00;;;;;;;18.62;53.72;93912.81;5071640;28;20272;-74
2022/04/25 01:34:36;;;;;;;14.90;4.73;;;;;;;18.58;54.15;93899.47;5071259;28;20279;-74
2022/04/25 01:37:07;;;;;;;11.50;4.27;;;;;;;18.55;54.18;93903.25;5071479;28;20206;-74
2022/04/25 01:39:40;;;;;;;13.83;4.50;;;;;;;18.55;54.10;93900.69;5071107;28;20208;-74
2022/04/25 01:42:08;;;;;;;13.63;4.30;;;;;;;18.53;54.14;93907.06;5071428;28;20194;-74
2022/04/25 01:44:36;;;;;;;20.20;5.33;;;;;;;18.52;54.56;93903.69;5071400;28;20187;-74
2022/04/25 01:47:03;;;;;;;10.00;4.63;;;;;;;18.52;54.39;93908.88;5071288;28;20198;-74
2022/04/25 01:49:30;;;;;;;8.90;4.50;;;;;;;18.51;54.37;93907.25;5070893;28;20189;-74
2022/04/25 01:51:57;;;;;;;13.27;4.43;;;;;;;18.49;54.49;93906.69;5071081;28;20191;-77
2022/04/25 01:54:26;;;;;;;10.30;4.53;;;;;;;18.47;54.32;93908.66;5070936;28;20190;-76
2022/04/25 01:56:55;;;;;;;17.17;5.33;;;;;;;18.46;54.76;93904.50;5070594;28;20229;-76
2022/04/25 01:59:23;;;;;;;7.20;4.07;;;;;;;18.44;54.49;93901.34;5071203;28;20206;-75
2022/04/25 02:01:50;;;;;;;8.63;4.20;;;;;;;18.42;54.58;93882.59;5070822;28;20194;-74
2022/04/25 02:04:17;;;;;;;12.57;4.43;;;;;;;18.40;54.53;93883.81;5071007;28;20576;-74
2022/04/25 02:06:44;;;;;;;15.77;4.57;;;;;;;18.38;54.71;93883.22;5070766;28;20198;-74
2022/04/25 02:09:11;;;;;;;12.73;4.33;;;;;;;18.36;54.51;93883.44;5070526;28;20230;-74
2022/04/25 02:11:37;;;;;;;10.63;4.73;;;;;;;18.32;54.62;93877.09;5070503;28;20685;-74
2022/04/25 02:14:06;;;;;;;11.07;4.57;;;;;;;18.26;54.77;93870.94;5070886;28;20635;-74
2022/04/25 02:16:33;;;;;;;11.00;4.73;;;;;;;18.27;54.86;93880.28;5070533;28;20731;-75
2022/04/25 02:19:00;;;;;;;12.83;5.40;;;;;;;18.26;54.75;93889.06;5070576;28;20205;-75
2022/04/25 02:21:27;;;;;;;10.90;4.50;;;;;;;18.26;54.89;93896.81;5070190;28;20198;-74
2022/04/25 02:23:54;;;;;;;10.97;4.70;;;;;;;18.22;55.06;93895.63;5070323;28;20726;-75
2022/04/25 02:26:21;;;;;;;20.40;5.53;;;;;;;18.22;55.05;93897.41;5070329;28;20194;-75
2022/04/25 02:28:47;;;;;;;12.00;4.67;;;;;;;18.19;55.17;93893.44;5070240;28;20202;-76
2022/04/25 02:31:16;;;;;;;12.20;4.93;;;;;;;18.16;55.25;93891.25;5070417;28;20194;-74
2022/04/25 02:33:43;;;;;;;15.00;4.67;;;;;;;18.16;55.14;93904.19;5070733;28;20248;-75
2022/04/25 02:36:12;;;;;;;13.13;4.90;;;;;;;18.13;55.16;93896.03;5070033;28;20229;-75
2022/04/25 02:38:40;;;;;;;17.63;5.20;;;;;;;18.10;55.21;93902.44;5070707;28;20252;-74
2022/04/25 02:41:08;;;;;;;13.40;4.80;;;;;;;18.09;55.30;93903.44;5070219;28;20194;-75
2022/04/25 02:43:37;;;;;;;11.70;5.13;;;;;;;18.04;55.45;93885.13;5070279;28;20198;-76
2022/04/25 02:46:06;;;;;;;13.30;5.40;;;;;;;18.05;55.39;93890.09;5070442;28;20190;-76
2022/04/25 02:48:34;;;;;;;8.93;4.57;;;;;;;18.02;55.38;93871.59;5070369;28;20623;-77
2022/04/25 02:51:02;;;;;;;12.47;4.67;;;;;;;18.00;55.51;93865.81;5070189;28;20229;-74
2022/04/25 02:53:29;;;;;;;19.17;5.33;;;;;;;17.98;55.44;93854.91;5069478;28;20190;-74
2022/04/25 02:55:56;;;;;;;21.33;4.53;;;;;;;17.95;55.60;93844.94;5070268;28;20575;-74
2022/04/25 02:58:24;;;;;;;18.00;5.23;;;;;;;17.93;55.44;93850.34;5070425;28;20564;-74
2022/04/25 03:00:51;;;;;;;8.80;4.00;;;;;;;17.93;55.44;93844.38;5070229;28;20194;-73
2022/04/25 03:03:20;;;;;;;12.50;5.27;;;;;;;17.89;55.69;93840.59;5070054;28;20197;-73
2022/04/25 03:05:49;;;;;;;11.93;4.17;;;;;;;17.90;55.63;93855.13;5069920;28;20693;-74
2022/04/25 03:08:19;;;;;;;16.63;6.07;;;;;;;17.88;55.67;93865.69;5069575;28;20194;-74
2022/04/25 03:10:47;;;;;;;13.43;4.70;;;;;;;17.86;55.66;93862.47;5070257;28;20226;-75
2022/04/25 03:13:15;;;;;;;11.67;4.37;;;;;;;17.83;55.58;93865.47;5070138;28;20186;-74
2022/04/25 03:15:43;;;;;;;13.47;4.77;;;;;;;17.84;55.62;93864.50;5069849;28;20218;-77
2022/04/25 03:18:11;;;;;;;11.67;5.23;;;;;;;17.80;55.88;93855.53;5069842;28;20571;-74
2022/04/25 03:20:39;;;;;;;12.20;4.57;;;;;;;17.70;55.91;93844.78;5070038;28;20190;-74
2022/04/25 03:23:07;;;;;;;12.70;4.63;;;;;;;17.77;55.79;93864.50;5069437;28;20244;-74
2022/04/25 03:25:35;;;;;;;8.77;4.57;;;;;;;17.75;55.92;93866.50;5069876;28;20673;-74
2022/04/25 03:28:02;;;;;;;16.77;5.10;;;;;;;17.73;56.05;93867.66;5069780;28;20201;-74
2022/04/25 03:30:29;;;;;;;13.40;4.53;;;;;;;17.72;56.24;93871.25;5069888;28;20190;-74
2022/04/25 03:32:58;;;;;;;9.57;4.00;;;;;;;17.68;56.20;93867.47;5069649;28;20214;-74
2022/04/25 03:35:26;;;;;;;12.90;4.93;;;;;;;17.68;56.27;93882.97;5069581;28;20309;-75
2022/04/25 03:37:54;;;;;;;11.00;4.33;;;;;;;17.68;56.15;93883.78;5069386;28;20203;-75
2022/04/25 03:40:22;;;;;;;16.70;4.87;;;;;;;17.62;56.38;93883.78;5069876;28;20198;-74
2022/04/25 03:42:48;;;;;;;9.60;4.10;;;;;;;17.65;56.36;93899.69;5069817;28;20201;-74
2022/04/25 03:45:18;;;;;;;11.40;4.70;;;;;;;17.65;56.70;93891.13;5069942;28;20198;-74
2022/04/25 03:47:45;;;;;;;14.57;5.27;;;;;;;17.65;56.58;93893.72;5070052;28;20191;-74
2022/04/25 03:50:14;;;;;;;12.27;4.57;;;;;;;17.62;56.60;93894.13;5070077;28;20194;-74
2022/04/25 03:52:42;;;;;;;15.70;4.97;;;;;;;17.62;56.84;93904.47;5070407;28;20587;-75
2022/04/25 03:57:57;;;;;;;15.73;4.77;;;;;;;17.61;56.94;93908.03;5069643;28;20239;-76
2022/04/25 04:00:24;;;;;;;19.90;5.30;;;;;;;17.64;56.82;93908.44;5069606;28;20201;-74
2022/04/25 04:02:51;;;;;;;15.40;5.33;;;;;;;17.64;56.85;93887.75;5069857;28;20201;-74
2022/04/25 04:05:18;;;;;;;12.10;5.03;;;;;;;17.61;56.86;93884.78;5071947;28;20190;-76
2022/04/25 04:07:46;;;;;;;8.27;5.57;;;;;;;17.73;56.75;93911.63;5073351;28;20286;-75
2022/04/25 04:10:13;;;;;;;12.27;5.67;;;;;;;17.77;56.60;93913.63;5072842;28;20226;-76
2022/04/25 04:12:40;;;;;;;14.67;6.43;;;;;;;17.83;56.61;93917.19;5073267;28;20197;-74
2022/04/25 04:15:09;;;;;;;13.60;5.40;;;;;;;17.87;56.63;93917.59;5073121;28;20194;-74
2022/04/25 04:17:36;;;;;;;11.30;6.53;;;;;;;17.93;56.64;93915.00;5073137;28;20221;-73
2022/04/25 04:20:03;;;;;;;13.77;5.30;;;;;;;17.98;56.31;93915.19;5072720;28;20197;-75
2022/04/25 04:22:32;;;;;;;17.40;5.50;;;;;;;18.04;56.64;93921.34;5072963;28;20248;-75
2022/04/25 04:25:01;;;;;;;15.57;5.83;;;;;;;18.11;56.63;93922.13;5072577;28;20221;-75
2022/04/25 04:27:32;;;;;;;17.23;5.23;;;;;;;18.13;56.65;93912.38;5073164;28;20198;-75
2022/04/25 04:30:00;;;;;;;22.03;5.97;;;;;;;18.24;56.87;93922.09;5072631;28;20191;-75
2022/04/25 04:32:29;;;;;;;20.93;5.93;;;;;;;18.34;56.60;93923.47;5072796;28;20252;-75
2022/04/25 04:34:56;;;;;;;15.20;4.90;;;;;;;18.42;56.34;93923.25;5072881;28;20194;-74
2022/04/25 04:37:24;;;;;;;15.27;5.43;;;;;;;18.54;56.18;93924.97;5072812;28;20218;-76
2022/04/25 04:39:51;;;;;;;13.70;5.10;;;;;;;18.68;55.74;93917.94;5072844;28;20579;-76
2022/04/25 04:42:18;;;;;;;12.97;4.80;;;;;;;18.87;55.80;93925.84;5072469;28;20197;-76
2022/04/25 04:44:45;;;;;;;11.77;4.93;;;;;;;19.05;55.86;93937.13;5072657;28;20221;-75
2022/04/25 04:47:15;;;;;;;13.80;5.00;;;;;;;19.24;56.08;93939.81;5072139;28;20273;-76
2022/04/25 04:49:43;;;;;;;13.57;5.03;;;;;;;19.46;56.50;93938.44;5072410;28;20685;-75
2022/04/25 04:52:10;;;;;;;13.73;4.80;;;;;;;19.68;56.62;93925.94;5071991;28;20665;-74
2022/04/25 04:54:37;;;;;;;11.50;4.70;;;;;;;19.93;56.70;93941.50;5072501;28;20202;-77
2022/04/25 04:57:04;;;;;;;16.13;4.83;;;;;;;20.22;56.52;93944.44;5071837;28;20226;-76
2022/04/25 04:59:31;;;;;;;16.33;5.20;;;;;;;20.49;56.20;93944.97;5072302;28;20190;-76
2022/04/25 05:01:57;;;;;;;15.20;5.47;;;;;;;20.78;56.21;93939.03;5071951;28;20271;-76
2022/04/25 05:04:24;;;;;;;14.07;5.33;;;;;;;21.14;55.75;93946.97;5072464;28;20213;-76
2022/04/25 05:06:53;;;;;;;15.93;4.87;;;;;;;21.48;55.47;93958.53;5072130;28;20765;-75
2022/04/25 05:09:19;;;;;;;13.07;4.60;;;;;;;21.79;54.94;93953.03;5071759;28;20230;-75
2022/04/25 05:11:46;;;;;;;11.07;4.88;;;;;;;22.19;54.52;93962.00;5072013;28;20190;-76
2022/04/25 05:14:14;;;;;;;20.38;5.05;;;;;;;22.57;53.87;93971.16;5071829;28;20203;-75
2022/04/25 05:16:41;;;;;;;13.25;4.80;;;;;;;22.97;53.30;93974.63;5071236;28;20733;-74
2022/04/25 05:19:08;;;;;;;11.02;5.03;;;;;;;23.38;52.50;93971.94;5071304;28;20586;-76
2022/04/25 05:21:35;;;;;;;17.75;4.88;;;;;;;23.76;52.10;93966.88;5072030;28;20198;-74
2022/04/25 05:24:03;;;;;;;17.83;5.25;;;;;;;24.24;51.20;93973.34;5071231;28;20649;-75
2022/04/25 05:26:30;;;;;;;17.10;5.18;;;;;;;24.71;50.22;93969.56;5071654;28;20194;-75
2022/04/25 05:28:57;;;;;;;14.23;5.47;;;;;;;25.17;49.53;93975.31;5071291;28;20206;-76
2022/04/25 05:31:24;;;;;;;13.35;4.22;;;;;;;25.64;48.52;93980.75;5071412;28;20263;-75
2022/04/25 05:33:51;;;;;;;19.35;4.78;;;;;;;26.10;47.37;93983.78;5071269;28;20204;-75
2022/04/25 05:36:18;;;;;;;18.35;4.72;;;;;;;26.54;46.28;93973.06;5071342;28;20233;-74
2022/04/25 05:38:47;;;;;;;14.90;4.97;;;;;;;27.01;45.42;93980.91;5071294;28;20187;-75
2022/04/25 05:41:15;;;;;;;20.60;5.00;;;;;;;27.51;44.56;93989.22;5071176;28;20551;-76
2022/04/25 05:43:43;;;;;;;15.52;4.00;;;;;;;27.95;43.54;93984.28;5071240;28;20654;-76
2022/04/25 05:46:10;;;;;;;16.73;4.47;;;;;;;28.37;42.85;93980.59;5071061;28;20190;-75
2022/04/25 05:54:14;;;;;;;14.80;4.90;;;;;;;29.84;40.23;93986.31;4989255;28;20755;-74
2022/04/25 05:56:42;;;;;;;17.50;5.28;;;;;;;30.29;39.39;93996.78;4989540;28;20221;-74
2022/04/25 05:59:11;;;;;;;16.38;4.65;;;;;;;30.72;38.25;93992.44;4989454;28;20197;-75
2022/04/25 06:01:40;;;;;;;14.07;4.28;;;;;;;31.13;37.89;93999.88;4989904;28;20197;-74
2022/04/25 06:04:07;;;;;;;17.73;5.10;;;;;;;31.55;37.36;94001.72;4989336;28;20200;-75
2022/04/25 06:06:34;;;;;;;14.77;4.50;;;;;;;31.96;36.71;93995.88;4989685;28;20200;-76
2022/04/25 06:09:01;;;;;;;14.10;4.25;;;;;;;32.35;35.51;93995.50;4988741;28;20229;-74
2022/04/25 06:11:29;;;;;;;15.20;4.53;;;;;;;32.74;35.20;93980.28;4989314;28;20197;-75
2022/04/25 06:14:02;;;;;;;25.95;4.80;;;;;;;33.15;34.45;93974.97;4989043;28;20720;-75
2022/04/25 06:16:29;;;;;;;16.63;5.05;;;;;;;33.58;34.12;93970.09;4989258;28;20221;-75
2022/04/25 06:18:55;;;;;;;24.45;4.63;;;;;;;33.98;33.42;93972.91;4989091;28;20197;-75
2022/04/25 06:21:22;;;;;;;21.65;4.47;;;;;;;34.38;33.08;93970.38;4989222;28;20284;-77
2022/04/25 06:23:49;;;;;;;12.95;4.35;;;;;;;34.77;32.32;93956.34;4988838;28;20204;-77
2022/04/25 06:26:16;;;;;;;14.20;3.75;;;;;;;35.14;31.76;93963.00;4994738;28;20208;-74
2022/04/25 06:28:42;;;;;;;14.52;4.43;;;;;;;35.58;31.10;93960.44;5070137;28;20194;-74
2022/04/25 06:31:11;;;;;;;14.98;4.00;;;;;;;35.97;30.94;93972.03;5070151;28;20194;-75
2022/04/25 06:33:38;;;;;;;12.43;4.13;;;;;;;36.33;30.54;93977.78;5070646;28;20198;-74
2022/04/25 06:36:06;;;;;;;14.80;4.28;;;;;;;36.70;29.90;93983.47;5070097;28;20236;-75
2022/04/25 06:38:33;;;;;;;14.82;4.32;;;;;;;37.07;29.28;93970.47;5070587;28;20195;-75
2022/04/25 06:40:59;;;;;;;19.40;4.82;;;;;;;37.39;28.99;93974.38;5069879;28;20542;-75
2022/04/25 06:43:26;;;;;;;17.02;4.45;;;;;;;37.72;28.73;93971.78;5070520;28;20186;-74
2022/04/25 06:45:54;;;;;;;16.20;5.03;;;;;;;38.03;28.26;93984.72;5070262;28;20194;-77
2022/04/25 06:48:22;;;;;;;17.88;4.10;;;;;;;38.32;27.81;93983.84;5070359;28;20198;-74
2022/04/25 06:50:49;;;;;;;15.52;4.68;;;;;;;38.58;27.42;93980.13;5069886;28;20194;-76
2022/04/25 06:53:16;;;;;;;15.02;4.32;;;;;;;38.79;27.11;93967.47;5070157;28;20194;-75
2022/04/25 06:55:43;;;;;;;19.33;4.70;;;;;;;39.07;26.51;93972.16;5070155;28;20212;-75
2022/04/25 06:58:09;;;;;;;16.15;4.70;;;;;;;39.28;26.41;93972.03;5070012;28;20222;-76
2022/04/25 07:00:37;;;;;;;20.25;5.15;;;;;;;39.50;26.23;93976.13;5070002;28;20201;-73
2022/04/25 07:03:04;;;;;;;15.02;4.30;;;;;;;39.68;25.87;93973.97;5069986;28;20285;-78
2022/04/25 07:05:32;;;;;;;16.48;4.50;;;;;;;39.93;25.92;93985.41;5069841;28;20585;-74
2022/04/25 07:07:59;;;;;;;14.15;4.20;;;;;;;40.10;25.66;93977.88;5069696;28;20251;-74
2022/04/25 07:10:26;;;;;;;12.73;3.92;;;;;;;40.30;25.49;93980.69;5069839;28;20288;-73
2022/04/25 07:12:52;;;;;;;20.17;4.82;;;;;;;40.48;25.26;93978.47;5070002;28;20198;-75
2022/04/25 07:15:20;;;;;;;15.60;4.45;;;;;;;40.63;24.90;93969.66;5069881;28;20197;-74
2022/04/25 07:17:50;;;;;;;16.38;3.80;;;;;;;40.82;24.83;93969.75;5069985;28;20306;-75
2022/04/25 07:20:17;;;;;;;13.80;4.05;;;;;;;40.99;24.38;93974.03;5069566;28;20232;-74
2022/04/25 07:31:13;;;;;;;14.15;4.20;;;;;;;41.58;23.64;93961.50;4988139;28;20243;-74
2022/04/25 07:33:43;;;;;;;16.15;4.60;;;;;;;41.69;23.85;93951.00;4988383;28;20284;-74
2022/04/25 07:36:10;;;;;;;19.88;4.68;;;;;;;41.78;23.52;93957.72;4987853;28;20222;-74
2022/04/25 07:38:39;;;;;;;18.80;4.30;;;;;;;41.85;23.46;93955.19;4988346;28;20235;-74
2022/04/25 07:41:06;;;;;;;21.38;4.13;;;;;;;41.96;22.98;93957.31;4991751;28;20193;-72
2022/04/25 07:43:34;;;;;;;15.43;4.30;;;;;;;42.04;23.02;93950.94;4991838;28;20203;-75
2022/04/25 07:46:01;;;;;;;12.35;4.85;;;;;;;42.12;22.74;93954.53;4991725;28;20778;-75
2022/04/25 07:48:29;;;;;;;14.90;3.97;;;;;;;42.13;22.79;93943.41;4991835;28;20406;-73
2022/04/25 07:50:55;;;;;;;17.60;3.83;;;;;;;42.23;22.68;93948.25;4991800;28;20692;-74
2022/04/25 07:53:22;;;;;;;13.15;4.20;;;;;;;42.24;22.11;93939.06;4991623;28;20197;-75
2022/04/25 07:55:50;;;;;;;17.83;4.20;;;;;;;42.32;22.26;93942.66;5003657;28;20186;-74
2022/04/25 07:58:17;;;;;;;18.02;4.47;;;;;;;42.31;21.58;93931.09;5073102;28;20842;-73
2022/04/25 08:00:44;;;;;;;15.10;4.55;;;;;;;42.28;21.65;93939.91;5073358;28;20190;-74
2022/04/25 08:03:11;;;;;;;13.38;4.15;;;;;;;42.28;21.81;93949.88;5072697;28;20190;-75
2022/04/25 08:05:37;;;;;;;16.85;4.22;;;;;;;42.23;21.25;93937.50;5073409;28;20190;-75
2022/04/25 08:08:05;;;;;;;14.00;3.75;;;;;;;42.18;21.31;93939.66;5072991;28;20193;-75
2022/04/25 08:10:32;;;;;;;17.50;4.43;;;;;;;42.13;20.93;93924.59;5072947;28;20320;-75
2022/04/25 08:18:28;;;;;;;21.55;4.25;;;;;;;41.91;20.93;93938.78;5072883;28;20224;-76
2022/04/25 08:20:55;;;;;;;14.50;3.58;;;;;;;41.81;20.62;93940.91;5072408;28;20195;-73
2022/04/25 08:23:22;;;;;;;15.60;4.05;;;;;;;41.73;20.71;93930.38;5072508;28;20190;-75
2022/04/25 08:25:49;;;;;;;21.33;3.90;;;;;;;41.60;20.55;93916.31;5072811;28;20205;-74
2022/04/25 08:28:19;;;;;;;17.40;3.65;;;;;;;41.49;20.52;93924.13;5072305;28;20190;-74
2022/04/25 08:30:46;;;;;;;10.30;4.00;;;;;;;41.38;20.85;93920.47;5072537;28;20654;-74
2022/04/25 08:33:13;;;;;;;13.80;3.58;;;;;;;41.26;20.42;93926.69;5072352;28;20186;-75
2022/04/25 08:35:40;;;;;;;11.25;3.45;;;;;;;41.12;21.03;93918.34;5072621;28;20573;-75
2022/04/25 08:38:07;;;;;;;18.00;5.28;;;;;;;40.98;20.72;93923.38;5072205;28;20276;-76
2022/04/25 08:40:34;;;;;;;16.90;3.92;;;;;;;40.84;20.80;93935.31;5072630;28;20193;-76
2022/04/25 08:43:04;;;;;;;17.50;3.95;;;;;;;40.68;20.77;93918.47;5072455;28;20623;-76
2022/04/25 08:45:32;;;;;;;15.25;4.03;;;;;;;40.54;20.67;93931.53;5072773;28;20214;-75
2022/04/25 08:48:01;;;;;;;14.15;4.03;;;;;;;40.36;20.74;93931.06;5072517;28;20202;-74
2022/04/25 08:50:29;;;;;;;13.68;3.10;;;;;;;40.23;20.77;93929.59;5071597;28;20191;-75
2022/04/25 08:52:57;;;;;;;12.25;4.10;;;;;;;39.70;21.14;93865.44;5071929;28;20202;-73
2022/04/25 08:55:26;;;;;;;11.27;3.03;;;;;;;39.85;21.00;93917.47;5072389;28;20187;-75
2022/04/25 08:57:56;;;;;;;21.67;3.42;;;;;;;39.71;20.80;93927.81;5072008;28;20230;-74
2022/04/25 09:00:23;;;;;;;13.73;3.40;;;;;;;39.54;21.07;93923.47;5072170;28;20218;-74
2022/04/25 09:02:51;;;;;;;13.25;4.05;;;;;;;39.35;21.22;93916.84;5071868;28;20195;-76
2022/04/25 09:05:18;;;;;;;12.30;3.22;;;;;;;39.18;20.98;93917.09;5071864;28;20581;-75
2022/04/25 09:07:46;;;;;;;14.00;3.60;;;;;;;38.94;21.67;93898.38;5071922;28;20209;-73
2022/04/25 09:10:14;;;;;;;21.00;3.90;;;;;;;38.75;21.62;93899.72;5071612;28;20229;-74
2022/04/25 09:12:44;;;;;;;8.85;2.95;;;;;;;38.61;21.49;93918.00;5071858;28;20274;-74
2022/04/25 09:15:11;;;;;;;8.40;2.95;;;;;;;38.39;21.76;93911.97;5071849;28;20600;-74
2022/04/25 09:17:38;;;;;;;14.30;3.10;;;;;;;38.23;21.69;93900.34;5071619;28;20681;-73
2022/04/25 09:20:09;;;;;;;15.13;3.63;;;;;;;38.08;21.67;93901.72;5071223;28;20190;-74
2022/04/25 09:22:39;;;;;;;9.18;3.03;;;;;;;37.90;21.65;93895.03;5071871;28;20194;-73
2022/04/25 09:25:07;;;;;;;14.00;3.28;;;;;;;37.72;21.71;93897.06;5071509;28;20240;-74
2022/04/25 09:27:35;;;;;;;13.77;3.53;;;;;;;37.56;21.83;93893.41;5071709;28;20203;-74
2022/04/25 09:30:19;;;;;;;10.25;2.97;;;;;;;37.37;21.89;93886.66;5071478;28;20562;-76
2022/04/25 09:32:46;;;;;;;13.23;3.40;;;;;;;37.20;21.98;93888.66;5071493;28;20202;-73
2022/04/25 09:35:29;;;;;;;12.55;3.45;;;;;;;37.02;22.41;93899.47;5071272;28;20637;-74
2022/04/25 09:37:57;;;;;;;9.55;2.70;;;;;;;36.86;22.29;93893.09;5071334;28;20230;-73
2022/04/25 09:40:29;;;;;;;13.10;3.72;;;;;;;36.68;22.40;93895.06;5071143;28;20693;-74
2022/04/25 09:43:05;;;;;;;14.18;2.95;;;;;;;36.50;22.17;93886.41;5071311;28;20282;-74
2022/04/25 09:45:33;;;;;;;16.17;2.90;;;;;;;36.26;22.43;93878.16;5071162;28;20182;-75
2022/04/25 09:48:00;;;;;;;14.18;2.75;;;;;;;36.15;22.39;93891.81;5071062;28;20708;-74
2022/04/25 09:50:28;;;;;;;19.42;3.55;;;;;;;35.95;22.45;93881.81;5071120;28;20194;-73
2022/04/25 09:52:57;;;;;;;15.48;3.35;;;;;;;35.75;21.96;93885.91;5070888;28;20190;-75
2022/04/25 09:55:27;;;;;;;18.35;3.10;;;;;;;35.60;22.25;93884.53;5070949;28;20229;-74
2022/04/25 09:57:54;;;;;;;12.98;3.50;;;;;;;35.43;22.17;93885.31;5070859;28;20728;-75
2022/04/25 10:00:34;;;;;;;18.33;3.40;;;;;;;35.27;22.33;93876.22;5070960;28;20186;-75
2022/04/25 10:03:01;;;;;;;13.23;3.22;;;;;;;35.11;22.29;93867.19;5070844;28;20228;-75
2022/04/25 10:05:41;;;;;;;12.02;2.70;;;;;;;35.02;22.68;93877.81;5070650;28;20198;-73
2022/04/25 10:08:10;;;;;;;12.93;3.58;;;;;;;34.90;22.55;93874.94;5070439;28;20190;-76
2022/04/25 10:10:40;;;;;;;15.98;2.92;;;;;;;34.79;22.72;93871.78;5070902;28;20614;-73
2022/04/25 10:13:08;;;;;;;19.27;3.67;;;;;;;34.67;22.54;93871.59;5070801;28;20613;-74
2022/04/25 10:15:37;;;;;;;15.88;2.90;;;;;;;34.56;22.86;93865.03;5070800;28;20190;-74
2022/04/25 10:18:06;;;;;;;12.05;3.25;;;;;;;34.45;22.86;93859.16;5070581;28;20222;-74
2022/04/25 10:20:34;;;;;;;12.80;2.97;;;;;;;34.34;22.45;93863.97;5070369;28;20229;-76
2022/04/25 10:23:03;;;;;;;14.65;2.70;;;;;;;34.18;22.76;93855.63;5070500;28;20685;-73
2022/04/25 10:25:31;;;;;;;9.20;2.63;;;;;;;34.07;22.84;93854.38;5070330;28;20661;-75
2022/04/25 10:27:59;;;;;;;15.23;3.00;;;;;;;33.89;22.36;93844.69;5071100;28;20190;-73
2022/04/25 10:30:31;;;;;;;7.80;3.13;;;;;;;33.85;22.69;93864.97;5070507;28;20316;-72
2022/04/25 10:33:13;;;;;;;14.25;2.92;;;;;;;33.70;23.01;93855.53;5070654;28;20240;-74
2022/04/25 10:35:40;;;;;;;9.27;2.90;;;;;;;33.59;23.32;93851.56;5070358;28;20558;-76
2022/04/25 10:38:48;;;;;;;13.93;3.13;;;;;;;33.48;22.90;93847.59;5070373;28;20260;-75
2022/04/25 10:44:31;;;;;;;6.68;2.72;;;;;;;33.25;22.84;93850.22;5070531;28;20209;-75
2022/04/25 10:47:12;;;;;;;10.18;2.55;;;;;;;33.20;23.07;93843.16;5070482;28;20190;-74
2022/04/25 10:49:40;;;;;;;9.32;2.47;;;;;;;33.17;23.15;93854.38;5070363;28;20226;-74
2022/04/25 10:52:53;;;;;;;10.20;2.75;;;;;;;33.13;23.40;93849.97;5070118;28;20665;-75
2022/04/25 10:55:26;;;;;;;8.10;2.60;;;;;;;33.07;23.21;93854.56;5069952;28;20624;-74
2022/04/25 10:58:21;;;;;;;9.80;2.08;;;;;;;33.03;23.47;93861.56;5070121;28;20222;-75
2022/04/25 11:00:53;;;;;;;13.32;2.85;;;;;;;32.97;23.14;93849.50;5070114;28;20194;-75
2022/04/25 11:03:26;;;;;;;13.02;2.65;;;;;;;32.92;23.47;93839.03;5070131;28;20190;-76
2022/04/25 11:05:54;;;;;;;7.03;2.28;;;;;;;32.90;23.14;93849.09;5070127;28;20192;-76
2022/04/25 11:08:35;;;;;;;12.00;2.65;;;;;;;32.88;23.29;93849.41;5069615;28;20197;-77
2022/04/25 11:11:08;;;;;;;12.63;2.83;;;;;;;32.87;22.97;93857.66;5070109;28;20606;-77
2022/04/25 11:13:36;;;;;;;8.48;2.33;;;;;;;32.87;23.05;93853.13;5069634;28;20194;-75
2022/04/25 11:16:21;;;;;;;10.18;2.75;;;;;;;32.84;23.04;93861.66;5074419;28;20190;-78
2022/04/25 11:19:08;;;;;;;11.20;2.53;;;;;;;32.85;22.79;93855.28;5073968;28;20307;-76
2022/04/25 11:21:34;;;;;;;9.52;2.15;;;;;;;32.85;22.84;93855.28;5073988;28;20236;-76
2022/04/25 11:24:02;;;;;;;6.20;2.20;;;;;;;32.86;22.98;93851.59;5073934;28;20685;-76
2022/04/25 11:26:59;;;;;;;5.80;1.95;;;;;;;32.85;23.23;93860.59;5074028;28;20197;-78
2022/04/25 11:29:26;;;;;;;9.90;2.28;;;;;;;32.82;22.98;93865.72;5073895;28;20198;-77
2022/04/25 11:32:13;;;;;;;9.43;2.65;;;;;;;32.82;23.21;93865.72;5073609;28;20198;-77
2022/04/25 11:34:39;;;;;;;4.18;2.08;;;;;;;32.80;23.23;93863.34;5073705;28;20197;-77
2022/04/25 11:37:11;;;;;;;7.75;2.00;;;;;;;32.82;22.88;93863.06;5073729;28;20201;-77
2022/04/25 11:39:53;;;;;;;9.48;2.55;;;;;;;32.78;23.06;93851.50;5073698;28;20221;-76
2022/04/25 11:42:21;;;;;;;7.95;2.53;;;;;;;32.81;23.00;93856.19;5073485;28;20201;-77
2022/04/25 11:44:48;;;;;;;7.80;2.70;;;;;;;32.81;22.87;93856.97;5073565;28;20186;-78
2022/04/25 11:47:15;;;;;;;10.68;2.47;;;;;;;32.79;22.76;93848.53;5073434;28;20680;-74
2022/04/25 11:49:42;;;;;;;5.47;2.22;;;;;;;32.78;23.28;93854.94;5073714;28;20201;-74
2022/04/25 11:52:15;;;;;;;7.13;1.90;;;;;;;32.76;22.74;93853.66;5073488;28;20580;-75
2022/04/25 11:54:42;;;;;;;7.40;2.05;;;;;;;32.69;23.01;93841.59;5073189;28;20251;-75
2022/04/25 11:57:09;;;;;;;6.30;2.40;;;;;;;32.66;23.03;93849.34;5073264;28;20229;-76
2022/04/25 11:59:37;;;;;;;13.20;2.85;;;;;;;32.57;22.59;93849.25;5073033;28;20225;-75
2022/04/25 12:02:04;;;;;;;5.50;2.17;;;;;;;32.45;23.21;93846.31;5073283;28;20194;-75
2022/04/25 12:04:33;;;;;;;11.50;2.60;;;;;;;32.37;22.68;93857.56;5073091;28;20554;-75